Flight Track Log - Related Links

Times and Time Zones

All times are in EDT time to prevent confusion due to time zone crossing. See the UPS1337 flight status page for this flight to view local times or setup timezone preferences in your user account.

Time Position Orientation Groundspeed Altitude Reporting Facility
EDT Latitude Longitude Course Direction KTS MPH feet Rate Location/Type
Tue 09:47:30 PM 27.9000 -82.6833 180° South 159 183 700  Level Tampa TRACON
Tue 09:48:06 PM 27.8667 -82.6833 180° South 163 188 2,500 2,483 Climbing Tampa TRACON
Tue 09:49:55 PM 27.8786 -82.7306 286° West 146 168 6,700 2,379 Climbing Jacksonville Center
Tue 09:50:55 PM 27.9578 -82.7328 359° North 183 211 9,200 2,250 Climbing Jacksonville Center
Tue 09:51:55 PM 28.0539 -82.7350 359° North 247 284 11,200 2,200 Climbing Jacksonville Center
Tue 09:52:55 PM 28.1667 -82.7419 357° North 338 389 13,600 2,500 Climbing Jacksonville Center
Tue 09:53:55 PM 28.2875 -82.7442 359° North 402 463 16,200 2,700 Climbing Jacksonville Center
Tue 09:54:55 PM 28.4067 -82.7700 349° North 417 480 19,000 2,650 Climbing Jacksonville Center
Tue 09:55:55 PM 28.5256 -82.7981 348° North 431 496 21,500 2,033 Climbing Jacksonville Center
Tue 10:02:03 PM 29.3126 -83.0557 341° North 463 533 33,500 1,712 Climbing FlightAware ADS-B
Tue 10:03:13 PM 29.4641 -83.1166 341° North 471 542 34,000 214 Climbing FlightAware ADS-B
Tue 10:03:55 PM 29.5417 -83.1528 341° North 467 537 33,900  Descending Jacksonville Center
Tue 10:09:54 PM 30.2741 -83.4427 341° North 462 532 34,000 15 Climbing FlightAware ADS-B
Tue 10:10:34 PM 30.3542 -83.4752 341° North 462 532 34,000  Level FlightAware ADS-B
Tue 10:11:07 PM 30.4209 -83.5025 341° North 462 532 34,000  Level FlightAware ADS-B
Tue 10:11:46 PM 30.4995 -83.5346 341° North 459 528 34,000  Level FlightAware ADS-B (KONZ)
Tue 10:12:25 PM 30.5444 -83.5530 340° North 459 528 34,000  Level FlightAware ADS-B (KONZ)
Tue 10:13:05 PM 30.6584 -83.5998 341° North 458 527 34,000  Level FlightAware ADS-B (KONZ)
Tue 10:13:35 PM 30.6784 -83.6080 341° North 458 527 34,000  Level FlightAware ADS-B (KONZ)
Tue 10:14:33 PM 30.7938 -83.6553 340° North 460 529 34,000  Level FlightAware ADS-B (KONZ)
Tue 10:15:05 PM 30.8996 -83.6990 341° North 459 528 34,000  Level FlightAware ADS-B (KONZ)
Tue 10:15:55 PM 30.9983 -83.7397 340° North 458 527 34,000  Level FlightAware ADS-B (KONZ)
Tue 10:17:33 PM 31.1954 -83.8212 340° North 466 536 34,000  Level FlightAware ADS-B (KONZ)
Tue 10:18:46 PM 31.3353 -83.8833 340° North 468 539 34,000  Level Atlanta Center
Tue 10:19:46 PM 31.4564 -83.9342 340° North 468 539 34,000  Level Atlanta Center
Tue 10:20:46 PM 31.5858 -83.9681 347° North 468 539 34,000  Level Atlanta Center
Tue 10:21:46 PM 31.7028 -83.9925 350° North 468 539 34,000  Level Atlanta Center
Tue 10:22:46 PM 31.8364 -84.0094 354° North 474 545 34,000  Level Atlanta Center
Tue 10:23:46 PM 31.9678 -84.0267 354° North 474 545 34,000  Level Atlanta Center
Tue 10:24:46 PM 32.0994 -84.0461 353° North 474 545 34,000  Level Atlanta Center
Tue 10:25:46 PM 32.2308 -84.0658 353° North 479 551 34,000  Level Atlanta Center
Tue 10:26:46 PM 32.3622 -84.0881 352° North 479 551 34,000  Level Atlanta Center
Tue 10:27:46 PM 32.4958 -84.1078 353° North 479 551 34,000  Level Atlanta Center
Tue 10:28:46 PM 32.6275 -84.1253 354° North 484 557 34,000  Level Atlanta Center
Tue 10:29:46 PM 32.7611 -84.1500 351° North 484 557 34,000  Level Atlanta Center
Tue 10:30:46 PM 32.8925 -84.1725 352° North 484 557 34,000  Level Atlanta Center
Tue 10:31:46 PM 33.0239 -84.1925 353° North 484 557 34,000  Level Atlanta Center
Tue 10:32:46 PM 33.1575 -84.2150 352° North 479 551 34,000  Level Atlanta Center
Tue 10:33:46 PM 33.2911 -84.2353 353° North 486 559 34,000  Level Atlanta Center
Tue 10:39:09 PM 34.0493 -84.3498 352° North 474 545 34,000  Level FlightAware ADS-B (KDZJ)
Tue 10:39:49 PM 34.1386 -84.3641 352° North 483 556 34,000  Level FlightAware ADS-B (KDZJ)
Tue 10:40:29 PM 34.2257 -84.3781 352° North 483 556 34,000  Level FlightAware ADS-B (KDZJ)
Tue 10:41:10 PM 34.3163 -84.3927 352° North 483 556 34,000  Level FlightAware ADS-B (KDZJ)
Tue 10:41:49 PM 34.4042 -84.4069 352° North 473 544 34,000  Level FlightAware ADS-B (KDZJ)
Tue 10:42:30 PM 34.4927 -84.4211 352° North 470 541 34,000  Level FlightAware ADS-B (KDZJ)
Tue 10:43:09 PM 34.5793 -84.4351 352° North 468 539 34,000  Level FlightAware ADS-B (KDZJ)
Tue 10:43:48 PM 34.6650 -84.4492 352° North 469 540 34,000  Level FlightAware ADS-B (KDZJ)
Tue 10:44:29 PM 34.7551 -84.4639 352° North 469 540 34,000  Level FlightAware ADS-B (KDZJ)
Tue 10:45:06 PM 34.8363 -84.4771 352° North 470 541 34,000  Level FlightAware ADS-B (KDZJ)
Tue 10:45:50 PM 34.9312 -84.4925 352° North 471 542 34,000  Level FlightAware ADS-B (KDZJ)
Tue 10:46:29 PM 35.0174 -84.5067 352° North 471 542 34,000  Level FlightAware ADS-B (KDZJ)
Tue 10:47:09 PM 35.1066 -84.5213 352° North 471 542 34,000  Level FlightAware ADS-B (KDZJ)
Tue 10:47:48 PM 35.1911 -84.5352 352° North 472 543 34,000  Level FlightAware ADS-B (KDZJ)
Tue 10:48:22 PM 35.2665 -84.5476 352° North 474 545 34,000  Level FlightAware ADS-B (KDZJ)
Tue 10:49:46 PM 35.4231 -84.5764 352° North 484 557 34,000  Level Atlanta Center
Tue 10:50:46 PM 35.5542 -84.5978 352° North 484 557 34,000  Level Atlanta Center
Tue 10:51:46 PM 35.6836 -84.6192 352° North 479 551 34,000 -450 Level Atlanta Center
Tue 10:52:46 PM 35.8150 -84.6381 353° North 479 551 33,100 -1,283 Descending Atlanta Center
Tue 10:59:29 PM 36.6921 -84.7866 352° North 461 531 24,100 -1,384 Descending FlightAware ADS-B
Tue 11:00:30 PM 36.8203 -84.8085 352° North 453 521 22,400 -1,769 Descending FlightAware ADS-B
Tue 11:05:32 PM 37.3976 -84.9081 352° North 406 467 13,400 -1,385 Descending FlightAware ADS-B
Tue 11:09:14 PM 37.7699 -85.1118 312° West 378 435 10,300 -600 Descending FlightAware ADS-B
Tue 11:10:32 PM 37.8596 -85.2364 313° West 346 398 10,400 -360 Climbing FlightAware ADS-B
Tue 11:11:44 PM 37.9116 -85.3393 299° West 273 314 9,400 -1,200 Descending FlightAware ADS-B
Tue 11:12:57 PM 37.9453 -85.4450 288° West 263 303 7,500 -1,462 Descending FlightAware ADS-B
Tue 11:13:43 PM 37.9642 -85.5098 291° West 259 298 6,500 -960 Descending FlightAware ADS-B (EPWR / WRO)
Tue 11:14:12 PM 37.9760 -85.5476 292° West 260 299 6,300 -132 Descending FlightAware ADS-B
Tue 11:15:14 PM 38.0047 -85.6397 291° West 262 302 6,300  Level FlightAware ADS-B
Tue 11:16:14 PM 38.0315 -85.7251 292° West 264 304 6,300 50 Level FlightAware ADS-B
Tue 11:17:15 PM 38.0593 -85.7980 330° Northwest 285 328 6,400 -93 Climbing FlightAware ADS-B
Tue 11:18:23 PM 38.1554 -85.8424 342° North 288 331 6,100 -863 Descending FlightAware ADS-B
Tue 11:19:34 PM 38.2423 -85.8793 341° North 273 314 4,400 -1,167 Descending FlightAware ADS-B
Tue 11:20:47 PM 38.3133 -85.9042 341° North 276 318 3,300 -627 Descending Indianapolis Center
Tue 11:21:48 PM 38.3411 -85.8431 60° Northeast 235 270 3,000 -393 Descending Indianapolis Center
Tue 11:22:49 PM 38.3103 -85.7978 131° Southeast 188 216 2,500 -393 Descending Indianapolis Center
Tue 11:23:50 PM 38.2689 -85.7783 160° South 177 204 2,200 -295 Descending Indianapolis Center

Login

Don't have an account? Register now (free) for customized features, flight alerts, and more!